Time;durP1;ratioP1;P1;durP2;ratioP2;P2;SDS_P1;SDS_P2;PMS_P1;PMS_P2;Temp;Humidity;BMP_temperature;BMP_pressure;BME280_temperature;BME280_humidity;BME280_pressure;Samples;Min_cycle;Max_cycle;Signal;HPM_P1;HPM_P2
2022/03/21 00:01:04;;;;;;;;;71.50;52.50;;;;;11.12;49.21;102274.28;4978608;28;45516;-68
2022/03/21 00:03:30;;;;;;;;;60.25;47.75;;;;;11.08;49.18;102264.56;4974429;28;45532;-69
2022/03/21 00:05:57;;;;;;;;;68.75;51.00;;;;;11.04;49.45;102266.22;4982134;28;45528;-69
2022/03/21 00:08:24;;;;;;;;;67.50;50.50;;;;;11.04;49.40;102271.47;4974488;28;45288;-69
2022/03/21 00:10:52;;;;;;;;;69.50;52.50;;;;;11.05;49.65;102265.38;4974103;28;45476;-69
2022/03/21 00:13:26;;;;;;;;;62.25;49.25;;;;;11.01;49.50;102268.78;4982026;27;45453;-69
2022/03/21 00:15:54;;;;;;;;;61.25;48.50;;;;;10.89;49.49;102252.72;4976653;28;46248;-69
2022/03/21 00:18:20;;;;;;;;;61.50;47.75;;;;;11.01;49.51;102271.41;4975164;28;45477;-70
2022/03/21 00:20:53;;;;;;;;;64.50;49.25;;;;;11.00;49.56;102274.88;4975096;27;45296;-69
2022/03/21 00:23:20;;;;;;;;;62.00;44.25;;;;;11.00;49.38;102273.13;4976372;28;45452;-69
2022/03/21 00:25:46;;;;;;;;;63.00;49.50;;;;;10.95;49.29;102266.88;4973668;28;46089;-69
2022/03/21 00:28:12;;;;;;;;;56.75;43.25;;;;;11.00;49.63;102272.25;4982100;28;45375;-70
2022/03/21 00:30:43;;;;;;;;;66.25;50.50;;;;;11.00;49.64;102277.50;4996311;28;45391;-68
2022/03/21 00:33:10;;;;;;;;;62.75;51.25;;;;;10.96;49.99;102271.28;4999855;27;45669;-68
2022/03/21 00:35:36;;;;;;;;;63.50;51.50;;;;;10.96;49.72;102278.25;5015727;27;45370;-69
2022/03/21 00:38:03;;;;;;;;;63.00;48.00;;;;;10.91;49.84;102272.88;5016064;27;45409;-70
2022/03/21 00:40:31;;;;;;;;;69.25;53.50;;;;;10.83;49.57;102269.19;5015466;27;45476;-70
2022/03/21 00:42:58;;;;;;;;;63.75;49.75;;;;;10.78;50.57;102278.69;4997021;27;45355;-69
2022/03/21 00:45:25;;;;;;;;;69.00;49.75;;;;;10.72;50.51;102278.50;4996411;27;46161;-70
2022/03/21 00:47:52;;;;;;;;;61.25;47.50;;;;;10.71;50.31;102279.38;4978633;28;45400;-69
2022/03/21 00:50:21;;;;;;;;;67.25;49.25;;;;;10.68;50.45;102269.69;4996139;27;45552;-69
2022/03/21 00:52:54;;;;;;;;;60.50;46.75;;;;;10.63;50.86;102271.31;4996187;27;45425;-69
2022/03/21 00:55:22;;;;;;;;;68.25;52.75;;;;;10.56;50.48;102258.91;4996819;27;45471;-70
2022/03/21 00:57:48;;;;;;;;;64.00;49.75;;;;;10.68;50.61;102276.66;4994757;27;45498;-71
2022/03/21 01:00:24;;;;;;;;;71.50;52.00;;;;;10.64;50.83;102267.84;4991430;27;45531;-70
2022/03/21 01:02:51;;;;;;;;;71.25;54.00;;;;;10.64;50.86;102269.59;4995171;27;45560;-70
2022/03/21 01:05:20;;;;;;;;;68.00;52.00;;;;;10.52;50.85;102257.03;4996323;27;45549;-69
2022/03/21 01:07:49;;;;;;;;;55.25;43.50;;;;;10.61;50.76;102271.28;4996085;27;45354;-68
2022/03/21 01:10:17;;;;;;;;;70.00;52.25;;;;;10.58;50.81;102272.91;4996088;27;45476;-69
2022/03/21 01:12:46;;;;;;;;;65.50;51.25;;;;;10.59;50.29;102274.69;4996386;27;45453;-69
2022/03/21 01:15:14;;;;;;;;;65.00;50.25;;;;;10.60;50.83;102279.97;4993434;27;46950;-68
2022/03/21 01:17:42;;;;;;;;;67.00;49.25;;;;;10.59;50.76;102283.44;4989161;27;45337;-69
2022/03/21 01:20:08;;;;;;;;;66.75;51.00;;;;;10.57;51.04;102279.00;4977212;28;45441;-70
2022/03/21 01:22:34;;;;;;;;;62.75;47.75;;;;;10.55;51.19;102273.72;4977030;28;45399;-71
2022/03/21 01:25:03;;;;;;;;;67.75;51.25;;;;;10.50;51.21;102272.72;4976437;28;45542;-68
2022/03/21 01:27:29;;;;;;;;;62.25;49.50;;;;;10.47;51.04;102267.41;4976885;28;45485;-69
2022/03/21 01:29:55;;;;;;;;;67.25;52.25;;;;;10.51;51.41;102284.06;4988790;28;45267;-69
2022/03/21 01:32:21;;;;;;;;;64.00;51.25;;;;;10.48;51.76;102274.41;4976074;28;45395;-68
2022/03/21 01:34:47;;;;;;;;;67.25;50.25;;;;;10.42;51.38;102268.09;4989836;28;46023;-68
2022/03/21 01:37:13;;;;;;;;;67.75;51.75;;;;;10.30;51.63;102253.84;5003869;27;45417;-68
2022/03/21 01:39:38;;;;;;;;;70.75;51.00;;;;;10.41;52.11;102277.69;5000438;27;45451;-68
2022/03/21 01:42:04;;;;;;;;;68.50;53.00;;;;;10.37;52.14;102281.97;5020898;27;45318;-68
2022/03/21 01:44:30;;;;;;;;;66.75;53.25;;;;;10.31;52.16;102283.53;5020773;27;45501;-69
2022/03/21 01:46:56;;;;;;;;;69.00;52.50;;;;;10.31;52.04;102284.41;5020087;27;45305;-68
2022/03/21 01:49:21;;;;;;;;;66.25;51.50;;;;;10.29;52.36;102282.59;5019819;28;45566;-68
2022/03/21 01:51:47;;;;;;;;;65.25;50.25;;;;;10.27;52.47;102281.63;5015261;27;45702;-69
2022/03/21 01:56:57;;;;;;;;;75.00;55.75;;;;;10.08;52.73;102249.69;4995741;27;45288;-68
2022/03/21 01:59:24;;;;;;;;;61.25;49.75;;;;;10.19;52.83;102263.97;4998545;27;45261;-70
2022/03/21 02:01:50;;;;;;;;;67.25;50.25;;;;;10.26;52.53;102272.00;4998950;27;45474;-70
2022/03/21 02:04:20;;;;;;;;;61.25;48.50;;;;;10.09;52.52;102251.47;5002856;27;45687;-70
2022/03/21 02:06:45;;;;;;;;;63.25;50.50;;;;;10.32;52.54;102293.16;4999881;27;45258;-70
2022/03/21 02:09:12;;;;;;;;;62.25;50.00;;;;;10.07;52.31;102242.69;5018242;27;45433;-69
2022/03/21 02:11:38;;;;;;;;;71.25;53.50;;;;;10.27;52.60;102274.66;5016314;27;45423;-70
2022/03/21 02:14:06;;;;;;;;;72.00;54.50;;;;;10.32;52.75;102280.06;4998789;27;46087;-68
2022/03/21 02:16:33;;;;;;;;;66.50;50.25;;;;;10.07;52.61;102231.34;4995505;27;45461;-69
2022/03/21 02:19:09;;;;;;;;;71.25;53.25;;;;;10.24;52.81;102258.00;4996566;27;45492;-70
2022/03/21 02:21:47;;;;;;;;;71.75;55.50;;;;;10.35;52.82;102281.03;4997087;27;45516;-69
2022/03/21 02:24:19;;;;;;;;;65.00;51.50;;;;;10.33;52.95;102276.63;4995431;27;45483;-69
2022/03/21 02:26:46;;;;;;;;;69.50;52.75;;;;;10.35;52.96;102280.16;4995295;27;45357;-70
2022/03/21 02:29:14;;;;;;;;;62.00;49.00;;;;;10.31;52.90;102257.34;4996995;27;45410;-69
2022/03/21 02:31:41;;;;;;;;;63.25;48.25;;;;;10.39;52.53;102266.28;5015325;27;45516;-71
2022/03/21 02:34:07;;;;;;;;;56.25;45.00;;;;;10.19;52.97;102227.31;5014946;27;45599;-69
2022/03/21 02:36:33;;;;;;;;;60.25;46.00;;;;;10.15;52.72;102222.84;5013152;27;45501;-69
2022/03/21 02:38:59;;;;;;;;;66.50;51.75;;;;;10.42;52.87;102263.78;5014943;27;45539;-68
2022/03/21 02:41:25;;;;;;;;;70.50;52.00;;;;;10.42;52.75;102262.84;5014618;27;45450;-70
2022/03/21 02:43:55;;;;;;;;;61.50;48.25;;;;;10.42;52.81;102258.53;5014236;27;45493;-67
2022/03/21 02:46:21;;;;;;;;;62.00;49.25;;;;;10.41;52.93;102261.97;5014331;27;45476;-69
2022/03/21 02:48:48;;;;;;;;;61.75;47.00;;;;;10.28;53.11;102245.06;5014669;28;45593;-69
2022/03/21 02:51:14;;;;;;;;;70.00;51.00;;;;;10.25;53.46;102228.31;4997577;27;45496;-69
2022/03/21 02:53:41;;;;;;;;;61.25;47.00;;;;;10.29;53.13;102238.97;4993432;27;46735;-69
2022/03/21 02:56:07;;;;;;;;;63.50;51.00;;;;;10.25;53.08;102225.72;4994435;27;45494;-68
2022/03/21 02:58:36;;;;;;;;;52.50;43.50;;;;;10.34;53.42;102236.47;4994594;27;45478;-69
2022/03/21 03:01:10;;;;;;;;;55.75;44.25;;;;;10.41;52.91;102246.25;4993486;27;45596;-68
2022/03/21 03:03:36;;;;;;;;;59.25;45.75;;;;;10.46;52.82;102243.78;4995417;27;45648;-69
2022/03/21 03:06:02;;;;;;;;;66.75;49.25;;;;;10.52;52.88;102255.31;4994894;28;45402;-69
2022/03/21 03:08:29;;;;;;;;;55.25;44.00;;;;;10.44;53.07;102238.50;4994714;28;45514;-69
2022/03/21 03:10:55;;;;;;;;;63.75;49.00;;;;;10.54;53.03;102257.97;4994687;27;45441;-68
2022/03/21 03:13:20;;;;;;;;;60.50;48.00;;;;;10.50;53.07;102251.75;4996252;27;46083;-68
2022/03/21 03:15:52;;;;;;;;;68.25;52.00;;;;;10.34;53.14;102233.84;5015087;27;45468;-68
2022/03/21 03:18:18;;;;;;;;;59.25;48.75;;;;;10.33;53.03;102232.09;5014776;27;45478;-68
2022/03/21 03:20:50;;;;;;;;;67.75;51.25;;;;;10.44;53.40;102261.16;5014698;27;45651;-69
2022/03/21 03:23:21;;;;;;;;;61.75;48.75;;;;;10.37;53.54;102260.16;4996302;27;45504;-68
2022/03/21 03:25:51;;;;;;;;;70.50;53.75;;;;;10.24;53.75;102245.78;4994111;27;45498;-69
2022/03/21 03:28:16;;;;;;;;;69.25;51.25;;;;;10.31;53.68;102255.59;4997266;28;45450;-69
2022/03/21 03:30:42;;;;;;;;;58.75;45.50;;;;;10.33;53.69;102264.41;5014187;27;45467;-69
2022/03/21 03:33:08;;;;;;;;;59.75;45.50;;;;;10.36;53.67;102267.09;5013506;27;45612;-69
2022/03/21 03:35:34;;;;;;;;;56.75;44.25;;;;;10.42;53.79;102270.72;5013884;27;45352;-68
2022/03/21 03:38:01;;;;;;;;;54.75;44.25;;;;;10.45;53.55;102266.47;5013826;27;45434;-67
2022/03/21 03:40:26;;;;;;;;;67.25;51.00;;;;;10.40;53.54;102261.09;5013839;27;45535;-68
2022/03/21 03:42:52;;;;;;;;;60.50;45.25;;;;;10.43;53.38;102255.06;5011304;28;45341;-68
2022/03/21 03:45:19;;;;;;;;;64.75;50.75;;;;;10.47;53.64;102263.91;4992150;27;45576;-70
2022/03/21 03:47:45;;;;;;;;;66.00;50.25;;;;;10.53;53.53;102272.78;4994013;27;45460;-70
2022/03/21 03:50:11;;;;;;;;;61.25;49.00;;;;;10.57;53.50;102272.03;4993876;27;45461;-68
2022/03/21 03:52:36;;;;;;;;;64.50;47.25;;;;;10.55;53.22;102268.47;4994070;27;45989;-69
2022/03/21 03:55:02;;;;;;;;;64.00;50.00;;;;;10.49;53.53;102255.22;4995218;27;45732;-69
2022/03/21 03:57:27;;;;;;;;;65.75;48.50;;;;;10.56;53.43;102272.00;4994068;27;45508;-69
2022/03/21 03:59:54;;;;;;;;;60.25;49.25;;;;;10.55;53.60;102264.97;4994280;27;45368;-68
2022/03/21 04:02:20;;;;;;;;;59.00;48.75;;;;;10.41;54.03;102256.75;4997970;27;45730;-70
2022/03/21 04:04:46;;;;;;;;;62.00;48.00;;;;;10.42;53.56;102255.00;5000038;27;45289;-69
2022/03/21 04:07:11;;;;;;;;;59.75;48.00;;;;;10.58;53.78;102281.69;4997683;27;45491;-69
2022/03/21 04:09:37;;;;;;;;;61.50;50.00;;;;;10.60;53.40;102266.84;4999714;27;45572;-68
2022/03/21 04:12:03;;;;;;;;;58.25;46.00;;;;;10.63;53.60;102267.78;5017265;27;45474;-69
2022/03/21 04:14:38;;;;;;;;;65.25;48.75;;;;;10.68;53.29;102271.41;5006985;27;45451;-69
2022/03/21 04:17:03;;;;;;;;;58.00;48.25;;;;;10.72;53.38;102275.91;5000821;27;45392;-70
2022/03/21 04:19:29;;;;;;;;;59.25;45.00;;;;;10.69;53.54;102274.09;5000942;27;45394;-69
2022/03/21 04:21:55;;;;;;;;;64.00;50.50;;;;;10.69;53.10;102278.44;5000719;27;46185;-69
2022/03/21 04:24:20;;;;;;;;;63.75;47.50;;;;;10.65;53.53;102263.47;5001387;27;45330;-70
2022/03/21 04:26:46;;;;;;;;;59.00;46.25;;;;;10.73;53.97;102288.16;5002460;27;45529;-69
2022/03/21 04:29:11;;;;;;;;;61.50;48.25;;;;;10.64;53.70;102270.47;5012566;28;45468;-68
2022/03/21 04:31:37;;;;;;;;;63.50;48.50;;;;;10.78;53.58;102294.41;5021793;27;46001;-69
2022/03/21 04:34:03;;;;;;;;;63.25;49.50;;;;;10.76;53.52;102298.72;5017775;27;45455;-68
2022/03/21 04:36:29;;;;;;;;;63.25;48.25;;;;;10.74;53.61;102303.03;5016710;27;45402;-68
2022/03/21 04:38:55;;;;;;;;;63.00;50.00;;;;;10.69;53.80;102308.16;4999712;27;45581;-69
2022/03/21 04:41:21;;;;;;;;;71.50;53.50;;;;;10.61;53.66;102296.59;5017591;27;46541;-69
2022/03/21 04:43:47;;;;;;;;;64.75;50.75;;;;;10.58;53.36;102294.78;5005750;27;45337;-69
2022/03/21 04:46:15;;;;;;;;;58.25;45.75;;;;;10.63;54.14;102307.09;4996544;27;45225;-68
2022/03/21 04:48:42;;;;;;;;;54.50;43.75;;;;;10.68;53.63;102309.00;5007344;27;45544;-69
2022/03/21 04:51:08;;;;;;;;;58.25;44.00;;;;;10.70;53.90;102311.66;4998141;27;47572;-70
2022/03/21 04:53:33;;;;;;;;;64.50;50.75;;;;;10.65;53.88;102308.91;5015870;27;45824;-68
2022/03/21 04:55:59;;;;;;;;;66.25;50.75;;;;;10.66;54.43;102317.69;5015751;27;45599;-69
2022/03/21 04:58:25;;;;;;;;;69.00;51.50;;;;;10.45;54.03;102283.91;5016048;27;45519;-68
2022/03/21 05:00:50;;;;;;;;;67.75;51.00;;;;;10.66;54.23;102328.16;5016082;27;45336;-69
2022/03/21 05:03:16;;;;;;;;;56.75;45.25;;;;;10.66;54.25;102321.19;5015081;28;45442;-68
2022/03/21 05:05:43;;;;;;;;;64.25;48.00;;;;;10.63;53.90;102310.63;5015757;27;45456;-67
2022/03/21 05:08:15;;;;;;;;;66.50;49.50;;;;;10.74;54.12;102327.50;4998763;28;45332;-68
2022/03/21 05:10:42;;;;;;;;;67.00;51.50;;;;;10.74;53.77;102322.25;4997687;27;46841;-68
2022/03/21 05:13:08;;;;;;;;;64.50;49.00;;;;;10.63;54.10;102294.00;5014955;27;45496;-68
2022/03/21 05:15:33;;;;;;;;;60.75;49.75;;;;;10.73;53.94;102307.41;5015533;27;45433;-69
2022/03/21 05:17:59;;;;;;;;;58.25;45.75;;;;;10.80;53.98;102321.56;5006032;27;45340;-70
2022/03/21 05:20:27;;;;;;;;;65.25;51.25;;;;;10.69;54.22;102309.88;4995842;27;45452;-68
2022/03/21 05:31:11;;;;;;;;;64.25;49.00;;;;;10.63;54.75;102309.72;4976253;28;45375;-70
2022/03/21 05:36:26;;;;;;;;;65.50;48.75;;;;;10.58;54.99;102328.84;4995893;27;45349;-69
2022/03/21 05:38:52;;;;;;;;;66.50;51.25;;;;;10.47;55.26;102311.06;4995734;28;45443;-69
2022/03/21 05:41:18;;;;;;;;;72.75;51.50;;;;;10.52;55.53;102335.63;4994358;27;46751;-69
2022/03/21 05:43:43;;;;;;;;;67.25;52.00;;;;;10.47;55.99;102329.38;5007883;27;45504;-70
2022/03/21 05:46:09;;;;;;;;;67.25;53.25;;;;;10.46;56.20;102341.56;5015112;27;45421;-69
2022/03/21 05:48:54;;;;;;;;;66.00;53.00;;;;;10.23;56.41;102308.56;5015318;27;45500;-70
2022/03/21 05:51:32;;;;;;;;;65.75;50.50;;;;;10.35;56.27;102341.28;5013185;27;46153;-70
2022/03/21 05:54:02;;;;;;;;;66.75;49.50;;;;;9.91;56.61;102261.41;5012652;27;45353;-70
2022/03/21 05:56:28;;;;;;;;;58.00;45.25;;;;;10.38;56.42;102350.97;4995453;27;45331;-70
2022/03/21 05:58:55;;;;;;;;;72.75;53.25;;;;;10.37;56.67;102357.06;4995587;27;45562;-70
2022/03/21 06:01:22;;;;;;;;;63.75;51.50;;;;;10.36;56.77;102340.44;4995060;27;46072;-67
2022/03/21 06:03:55;;;;;;;;;61.75;46.00;;;;;10.36;57.32;102357.88;4995269;27;45454;-68
2022/03/21 06:06:22;;;;;;;;;61.25;47.25;;;;;10.40;56.99;102359.75;4984238;27;45473;-70
2022/03/21 06:08:51;;;;;;;;;65.25;46.25;;;;;10.37;57.01;102362.28;5015478;27;45279;-68
2022/03/21 06:11:17;;;;;;;;;63.75;51.75;;;;;10.33;57.01;102363.03;5014769;27;46391;-68
2022/03/21 06:13:43;;;;;;;;;62.00;46.50;;;;;10.26;57.00;102361.06;5015060;27;45326;-68
2022/03/21 06:16:10;;;;;;;;;68.75;51.50;;;;;10.32;57.47;102367.41;5014919;27;45506;-69
2022/03/21 06:18:37;;;;;;;;;65.00;51.25;;;;;10.30;57.61;102362.97;5015306;27;45493;-68
2022/03/21 06:21:05;;;;;;;;;69.75;50.25;;;;;10.37;57.34;102362.28;5006360;27;46107;-69
2022/03/21 06:23:31;;;;;;;;;66.25;50.25;;;;;10.39;57.49;102366.72;4995038;27;45543;-70
2022/03/21 06:25:58;;;;;;;;;59.25;45.25;;;;;10.46;57.64;102393.09;4995122;27;45432;-68
2022/03/21 06:28:28;;;;;;;;;65.25;48.75;;;;;10.46;57.24;102393.97;4995300;27;45566;-68
2022/03/21 06:30:54;;;;;;;;;60.25;48.25;;;;;10.45;57.22;102384.34;4978067;28;47845;-69
2022/03/21 06:33:27;;;;;;;;;60.25;46.75;;;;;10.36;57.60;102364.00;4995145;27;45351;-69
2022/03/21 06:35:55;;;;;;;;;66.00;50.50;;;;;10.52;57.44;102407.25;4994790;28;45228;-69
2022/03/21 06:38:22;;;;;;;;;66.00;51.50;;;;;10.51;57.50;102401.97;4977652;28;45623;-69
2022/03/21 06:40:47;;;;;;;;;61.00;47.25;;;;;10.46;57.67;102400.94;4994914;27;45473;-68
2022/03/21 06:43:20;;;;;;;;;71.75;53.00;;;;;10.31;57.87;102383.94;4995984;27;45472;-68
2022/03/21 06:45:52;;;;;;;;;64.00;50.75;;;;;10.41;57.88;102408.66;4994061;27;45485;-69
2022/03/21 06:48:19;;;;;;;;;67.50;51.50;;;;;10.22;57.56;102370.53;4976779;28;45475;-70
2022/03/21 06:50:48;;;;;;;;;59.00;44.75;;;;;10.34;57.79;102406.72;4979987;27;45458;-70
2022/03/21 06:53:15;;;;;;;;;64.00;50.25;;;;;10.42;57.66;102418.31;4991250;27;45624;-68
2022/03/21 06:55:41;;;;;;;;;66.75;51.00;;;;;10.27;57.93;102415.19;4996567;27;45335;-69
2022/03/21 06:58:16;;;;;;;;;64.50;49.50;;;;;10.27;58.14;102415.19;4999027;27;45550;-70
2022/03/21 07:00:47;;;;;;;;;58.75;45.50;;;;;10.34;58.23;102415.44;4999045;27;45393;-70
2022/03/21 07:03:20;;;;;;;;;61.75;47.25;;;;;10.44;57.90;102429.72;4982333;28;45499;-68
2022/03/21 07:05:46;;;;;;;;;63.50;48.75;;;;;10.50;57.58;102422.03;5000188;27;45643;-70
2022/03/21 07:08:17;;;;;;;;;66.00;50.00;;;;;10.57;57.35;102421.38;4999306;27;45271;-70
2022/03/21 07:10:44;;;;;;;;;67.50;48.75;;;;;10.62;57.48;102429.38;4998665;27;46143;-70
2022/03/21 07:13:10;;;;;;;;;62.00;46.75;;;;;10.59;57.61;102424.94;4999154;28;45493;-68
2022/03/21 07:15:37;;;;;;;;;59.75;46.75;;;;;10.63;57.42;102430.25;4996057;27;45350;-70
2022/03/21 07:18:10;;;;;;;;;69.75;50.50;;;;;10.57;57.21;102415.25;4992524;28;45828;-70
2022/03/21 07:20:37;;;;;;;;;67.50;52.50;;;;;10.78;57.33;102438.56;4980313;28;45564;-69
2022/03/21 07:23:03;;;;;;;;;50.75;37.75;;;;;10.80;57.18;102427.28;4966983;28;45537;-69
2022/03/21 07:25:29;;;;;;;;;58.75;47.25;;;;;10.73;56.61;102395.63;4975146;28;45429;-69
2022/03/21 07:27:55;;;;;;;;;62.00;47.25;;;;;11.00;56.51;102427.81;4989751;27;45304;-69
2022/03/21 07:30:21;;;;;;;;;62.25;48.50;;;;;11.10;56.52;102418.47;5014176;27;45381;-70
2022/03/21 07:32:47;;;;;;;;;63.00;48.25;;;;;11.21;56.40;102416.13;4994926;27;45588;-68
2022/03/21 07:35:16;;;;;;;;;63.75;48.75;;;;;11.19;55.82;102396.84;4983109;28;45597;-69
2022/03/21 07:37:43;;;;;;;;;62.25;50.25;;;;;11.51;55.36;102428.25;5013272;27;45617;-69
2022/03/21 07:40:11;;;;;;;;;67.25;49.00;;;;;11.58;55.39;102433.72;5013898;27;46063;-68
2022/03/21 07:43:09;;;;;;;;;61.75;46.50;;;;;11.71;55.24;102429.63;4997689;27;45664;-70
2022/03/21 07:48:19;;;;;;;;;64.50;47.50;;;;;11.96;54.39;102427.63;4992346;27;45482;-69
2022/03/21 07:50:45;;;;;;;;;59.25;45.75;;;;;11.86;54.08;102408.09;4990236;27;46553;-69
2022/03/21 07:53:17;;;;;;;;;61.25;48.00;;;;;11.96;54.25;102425.00;4993189;28;45350;-70
2022/03/21 07:55:43;;;;;;;;;56.75;47.75;;;;;11.91;54.13;102392.50;5043894;27;45280;-68
2022/03/21 07:58:10;;;;;;;;;64.75;50.75;;;;;12.08;53.42;102425.31;5005622;27;45433;-69
2022/03/21 08:00:35;;;;;;;;;61.25;48.00;;;;;12.11;53.84;102430.63;4994354;27;45568;-69
2022/03/21 08:03:03;;;;;;;;;60.50;48.25;;;;;12.15;53.41;102426.31;4996763;28;45519;-68
2022/03/21 08:05:28;;;;;;;;;59.50;45.75;;;;;12.02;53.36;102412.91;4984133;27;46059;-69
2022/03/21 08:07:55;;;;;;;;;57.50;44.75;;;;;12.07;53.57;102428.75;4972679;27;45510;-70
2022/03/21 08:10:20;;;;;;;;;50.00;41.75;;;;;12.15;53.32;102432.47;5012005;27;45402;-70
2022/03/21 08:12:47;;;;;;;;;50.25;42.50;;;;;12.25;53.21;102439.69;5013952;27;45517;-70
2022/03/21 08:15:14;;;;;;;;;52.75;43.25;;;;;12.33;53.03;102442.47;5014584;27;45387;-68
2022/03/21 08:17:50;;;;;;;;;52.25;40.50;;;;;12.22;52.91;102417.69;5003161;27;45411;-69
2022/03/21 08:20:24;;;;;;;;;51.50;39.25;;;;;12.48;52.45;102445.47;4989740;27;45573;-69
2022/03/21 08:22:52;;;;;;;;;59.50;44.50;;;;;12.53;52.45;102440.31;4990725;27;45333;-70
2022/03/21 08:25:22;;;;;;;;;48.25;39.25;;;;;12.68;52.05;102444.97;4981317;27;45627;-69
2022/03/21 08:27:52;;;;;;;;;51.75;39.25;;;;;12.57;51.43;102412.31;4953528;28;45385;-70
2022/03/21 08:30:32;;;;;;;;;45.75;36.00;;;;;12.85;51.50;102446.19;4959881;27;46837;-69
2022/03/21 08:32:59;;;;;;;;;48.50;38.25;;;;;12.93;51.47;102449.88;4973122;28;45245;-69
2022/03/21 08:35:25;;;;;;;;;51.25;41.00;;;;;12.97;51.20;102458.72;4973367;28;45398;-70
2022/03/21 08:37:51;;;;;;;;;44.25;38.75;;;;;13.03;51.03;102450.94;5005809;27;45500;-69
2022/03/21 08:40:23;;;;;;;;;54.75;40.25;;;;;12.98;50.81;102428.94;5013372;27;45546;-70
2022/03/21 08:42:48;;;;;;;;;44.75;38.00;;;;;12.94;50.47;102395.53;5013259;27;45337;-70
2022/03/21 08:45:15;;;;;;;;;47.50;38.50;;;;;13.22;49.89;102443.41;5012992;27;45427;-73
2022/03/21 08:47:43;;;;;;;;;51.50;38.00;;;;;13.17;50.46;102438.06;5012736;27;45386;-69
2022/03/21 08:50:10;;;;;;;;;44.25;37.00;;;;;13.32;50.07;102450.63;5015573;27;46199;-69
2022/03/21 08:52:36;;;;;;;;;47.75;36.25;;;;;13.23;49.73;102424.13;5013851;27;45314;-69
2022/03/21 08:55:04;;;;;;;;;53.00;40.50;;;;;13.29;49.91;102447.97;5003650;27;45305;-69
2022/03/21 08:57:31;;;;;;;;;47.00;35.50;;;;;13.39;49.91;102460.41;4995592;27;45437;-69
2022/03/21 08:59:56;;;;;;;;;55.50;41.75;;;;;13.46;50.02;102453.53;4996187;27;46168;-69
2022/03/21 09:02:22;;;;;;;;;42.75;34.75;;;;;13.59;49.50;102452.84;4977354;27;45713;-69
2022/03/21 09:04:48;;;;;;;;;52.50;37.25;;;;;13.65;49.77;102445.06;4974259;27;46196;-69
2022/03/21 09:07:14;;;;;;;;;42.00;34.00;;;;;13.76;49.30;102442.59;4985221;27;45970;-69
2022/03/21 09:09:40;;;;;;;;;39.50;31.75;;;;;13.90;48.79;102438.44;4983971;27;46142;-68
2022/03/21 09:12:07;;;;;;;;;41.75;34.00;;;;;13.98;48.94;102431.53;4979901;27;45449;-69
2022/03/21 09:14:34;;;;;;;;;45.75;37.00;;;;;14.08;48.11;102440.47;4972418;27;46083;-70
2022/03/21 09:17:00;;;;;;;;;35.75;32.75;;;;;14.17;47.82;102437.09;4993623;27;45580;-69
2022/03/21 09:19:27;;;;;;;;;44.50;35.00;;;;;14.23;48.00;102433.66;4978045;28;45379;-69
2022/03/21 09:21:54;;;;;;;;;42.75;35.25;;;;;14.28;47.79;102426.69;4995747;27;45409;-69
2022/03/21 09:24:19;;;;;;;;;47.25;37.00;;;;;14.43;47.32;102433.06;5014526;27;45492;-69
2022/03/21 09:26:45;;;;;;;;;46.25;38.25;;;;;14.43;46.99;102422.50;5015636;27;45532;-68
2022/03/21 09:29:11;;;;;;;;;46.00;34.50;;;;;14.56;47.35;102430.59;4985160;27;45425;-69
2022/03/21 09:31:38;;;;;;;;;45.75;32.50;;;;;14.68;46.98;102422.84;4975453;28;45357;-69
2022/03/21 09:34:04;;;;;;;;;42.50;35.00;;;;;14.82;46.81;102428.28;4976837;28;45410;-69
2022/03/21 09:36:30;;;;;;;;;40.50;34.25;;;;;14.91;46.69;102430.16;4965502;28;45649;-69
2022/03/21 09:38:55;;;;;;;;;30.75;28.25;;;;;14.99;45.77;102439.88;5012122;27;45545;-69
2022/03/21 09:41:26;;;;;;;;;37.25;32.00;;;;;15.06;46.18;102428.53;5005250;27;46247;-69
2022/03/21 09:43:54;;;;;;;;;37.25;33.00;;;;;15.15;45.75;102433.03;4990592;27;45426;-70
2022/03/21 09:46:20;;;;;;;;;37.00;28.00;;;;;15.22;45.70;102424.31;4996776;27;45440;-69
2022/03/21 09:48:52;;;;;;;;;31.25;28.00;;;;;15.33;45.59;102429.69;5002706;27;45758;-69
2022/03/21 09:51:38;;;;;;;;;35.75;29.50;;;;;15.37;45.42;102406.84;4996319;27;45354;-69
2022/03/21 09:54:03;;;;;;;;;31.25;29.75;;;;;15.57;44.83;102426.38;4960820;28;45343;-68
2022/03/21 09:56:30;;;;;;;;;31.50;27.50;;;;;15.70;44.87;102419.47;4975167;27;45513;-69
2022/03/21 09:58:59;;;;;;;;;35.00;26.75;;;;;15.71;43.96;102415.97;4976404;27;45568;-70
2022/03/21 10:01:29;;;;;;;;;25.50;24.00;;;;;15.76;44.00;102416.00;5000906;27;45362;-70
2022/03/21 10:03:55;;;;;;;;;30.75;24.75;;;;;15.85;44.17;102394.91;5003859;27;45422;-70
2022/03/21 10:06:35;;;;;;;;;27.25;24.25;;;;;16.01;43.47;102395.88;4958734;28;45662;-70
2022/03/21 10:09:19;;;;;;;;;24.50;22.25;;;;;16.10;42.74;102406.53;4983183;27;47142;-68
2022/03/21 10:11:53;;;;;;;;;22.75;20.75;;;;;16.17;42.70;102407.44;5011314;27;45159;-68
2022/03/21 10:14:36;;;;;;;;;19.75;18.50;;;;;16.27;42.62;102402.19;5004065;27;45851;-68
2022/03/21 10:17:05;;;;;;;;;19.00;17.75;;;;;16.41;42.52;102401.38;5026023;27;45516;-70
2022/03/21 10:19:46;;;;;;;;;23.75;18.25;;;;;16.52;42.11;102402.31;5060826;27;45728;-69
2022/03/21 10:22:33;;;;;;;;;21.25;18.25;;;;;16.60;42.10;102407.63;5094416;27;45383;-70
2022/03/21 10:25:05;;;;;;;;;24.50;17.50;;;;;16.73;41.86;102394.47;4999357;27;45921;-69
2022/03/21 10:27:42;;;;;;;;;21.50;18.00;;;;;16.80;41.84;102389.19;5092095;27;45828;-70
2022/03/21 10:30:26;;;;;;;;;22.75;21.25;;;;;16.94;41.54;102385.72;5074076;27;47795;-69
2022/03/21 10:32:57;;;;;;;;;20.75;19.00;;;;;17.12;41.38;102389.28;5025414;27;45433;-70
2022/03/21 10:35:28;;;;;;;;;23.50;21.00;;;;;17.22;41.00;102395.47;4994033;27;45451;-69
2022/03/21 10:37:58;;;;;;;;;17.67;17.00;;;;;17.32;40.66;102378.69;5016753;27;45470;-68
2022/03/21 10:40:23;;;;;;;;;18.00;17.00;;;;;17.45;40.69;102383.09;5001114;27;45493;-68
2022/03/21 10:43:09;;;;;;;;;13.67;13.67;;;;;17.61;40.50;102378.69;5059320;27;45477;-68
2022/03/21 10:45:35;;;;;;;;;16.50;15.00;;;;;17.68;40.30;102385.75;5034815;27;45602;-69
2022/03/21 10:48:08;;;;;;;;;14.67;14.00;;;;;17.56;39.70;102380.47;4991083;27;45670;-69
2022/03/21 10:50:36;;;;;;;;;21.00;15.33;;;;;17.69;39.95;102382.19;4956992;27;46651;-70
2022/03/21 10:53:11;;;;;;;;;25.50;19.75;;;;;17.83;39.79;102386.63;5001655;27;45833;-68
2022/03/21 10:55:38;;;;;;;;;19.33;17.67;;;;;17.99;40.00;102365.38;5051696;27;45488;-70
2022/03/21 10:58:08;;;;;;;;;20.00;15.33;;;;;18.35;39.19;102371.44;5032806;27;45730;-70
2022/03/21 11:00:35;;;;;;;;;17.00;14.33;;;;;18.62;38.51;102373.06;5075340;27;45390;-69
2022/03/21 11:03:09;;;;;;;;;17.00;17.00;;;;;18.65;38.07;102351.84;5015376;27;45511;-69
2022/03/21 11:05:38;;;;;;;;;21.67;15.67;;;;;18.87;37.75;102370.31;4997724;27;46370;-69
2022/03/21 11:08:08;;;;;;;;;19.00;15.67;;;;;19.04;37.73;102371.06;5042993;27;46169;-68
2022/03/21 11:10:34;;;;;;;;;23.67;18.33;;;;;19.05;37.40;102350.69;5028765;27;46248;-70
2022/03/21 11:13:01;;;;;;;;;24.33;19.00;;;;;19.18;37.07;102363.00;5066257;27;45536;-70
2022/03/21 11:15:35;;;;;;;;;24.67;17.67;;;;;19.22;36.99;102351.47;5042209;27;45340;-69
2022/03/21 11:18:01;;;;;;;;;25.67;19.00;;;;;19.42;37.31;102356.59;5063097;27;45932;-69
2022/03/21 11:20:30;;;;;;;;;23.33;16.33;;;;;19.80;37.35;102352.72;5012342;27;45978;-69
2022/03/21 11:22:57;;;;;;;;;22.67;14.67;;;;;20.21;36.33;102348.69;5050765;27;45458;-70
2022/03/21 11:25:28;;;;;;;;;14.67;14.00;;;;;20.66;35.07;102345.47;5088227;27;45455;-70
2022/03/21 11:28:12;;;;;;;;;25.33;15.00;;;;;20.97;35.13;102316.56;5053266;27;45461;-69
2022/03/21 11:31:00;;;;;;;;;17.00;12.67;;;;;21.58;34.99;102323.53;5075697;27;45421;-69